sensor_id;sensor_type;location;lat;lon;timestamp;P1;durP1;ratioP1;P2;durP2;ratioP2
62798;SDS011;48842;51.046;13.796;2022-10-10T00:01:26;5.67;;;2.60;;
62798;SDS011;48842;51.046;13.796;2022-10-10T00:03:55;3.60;;;2.80;;
62798;SDS011;48842;51.046;13.796;2022-10-10T00:06:21;6.40;;;3.97;;
62798;SDS011;48842;51.046;13.796;2022-10-10T00:08:46;4.63;;;3.00;;
62798;SDS011;48842;51.046;13.796;2022-10-10T00:11:12;8.57;;;3.00;;
62798;SDS011;48842;51.046;13.796;2022-10-10T00:13:40;7.03;;;2.73;;
62798;SDS011;48842;51.046;13.796;2022-10-10T00:16:05;9.07;;;3.00;;
62798;SDS011;48842;51.046;13.796;2022-10-10T00:18:31;6.43;;;2.70;;
62798;SDS011;48842;51.046;13.796;2022-10-10T00:20:57;4.33;;;3.27;;
62798;SDS011;48842;51.046;13.796;2022-10-10T00:23:22;5.20;;;2.53;;
62798;SDS011;48842;51.046;13.796;2022-10-10T00:25:48;5.57;;;2.67;;
62798;SDS011;48842;51.046;13.796;2022-10-10T00:28:14;6.10;;;3.37;;
62798;SDS011;48842;51.046;13.796;2022-10-10T00:30:40;7.10;;;2.73;;
62798;SDS011;48842;51.046;13.796;2022-10-10T00:33:05;8.90;;;2.97;;
62798;SDS011;48842;51.046;13.796;2022-10-10T00:35:31;7.03;;;2.47;;
62798;SDS011;48842;51.046;13.796;2022-10-10T00:37:56;9.53;;;2.50;;
62798;SDS011;48842;51.046;13.796;2022-10-10T00:40:22;6.47;;;2.30;;
62798;SDS011;48842;51.046;13.796;2022-10-10T00:42:48;4.80;;;2.40;;
62798;SDS011;48842;51.046;13.796;2022-10-10T00:48:12;3.20;;;2.30;;
62798;SDS011;48842;51.046;13.796;2022-10-10T00:50:39;3.37;;;2.40;;
62798;SDS011;48842;51.046;13.796;2022-10-10T00:53:08;3.43;;;2.47;;
62798;SDS011;48842;51.046;13.796;2022-10-10T00:55:37;3.27;;;2.50;;
62798;SDS011;48842;51.046;13.796;2022-10-10T00:58:03;5.77;;;2.50;;
62798;SDS011;48842;51.046;13.796;2022-10-10T01:00:30;2.80;;;2.23;;
62798;SDS011;48842;51.046;13.796;2022-10-10T01:02:56;5.57;;;2.60;;
62798;SDS011;48842;51.046;13.796;2022-10-10T01:05:21;4.70;;;2.60;;
62798;SDS011;48842;51.046;13.796;2022-10-10T01:07:46;4.90;;;2.57;;
62798;SDS011;48842;51.046;13.796;2022-10-10T01:10:13;6.53;;;3.33;;
62798;SDS011;48842;51.046;13.796;2022-10-10T01:21:31;3.00;;;2.70;;
62798;SDS011;48842;51.046;13.796;2022-10-10T01:24:17;4.30;;;1.90;;
62798;SDS011;48842;51.046;13.796;2022-10-10T01:27:09;9.13;;;2.93;;
62798;SDS011;48842;51.046;13.796;2022-10-10T01:29:43;5.10;;;2.80;;
62798;SDS011;48842;51.046;13.796;2022-10-10T01:32:13;4.83;;;2.70;;
62798;SDS011;48842;51.046;13.796;2022-10-10T01:35:10;3.93;;;2.50;;
62798;SDS011;48842;51.046;13.796;2022-10-10T01:43:55;5.30;;;2.17;;
62798;SDS011;48842;51.046;13.796;2022-10-10T01:46:22;4.73;;;2.83;;
62798;SDS011;48842;51.046;13.796;2022-10-10T01:48:48;5.60;;;2.63;;
62798;SDS011;48842;51.046;13.796;2022-10-10T01:57:19;2.73;;;2.43;;
62798;SDS011;48842;51.046;13.796;2022-10-10T02:02:58;4.67;;;2.80;;
62798;SDS011;48842;51.046;13.796;2022-10-10T02:10:35;3.10;;;2.47;;
62798;SDS011;48842;51.046;13.796;2022-10-10T02:13:06;5.70;;;2.27;;
62798;SDS011;48842;51.046;13.796;2022-10-10T02:15:36;3.43;;;2.13;;
62798;SDS011;48842;51.046;13.796;2022-10-10T02:18:07;4.10;;;2.23;;
62798;SDS011;48842;51.046;13.796;2022-10-10T02:20:35;5.63;;;2.63;;
62798;SDS011;48842;51.046;13.796;2022-10-10T02:23:00;3.23;;;2.30;;
62798;SDS011;48842;51.046;13.796;2022-10-10T02:25:27;4.73;;;2.63;;
62798;SDS011;48842;51.046;13.796;2022-10-10T02:27:58;4.63;;;2.10;;
62798;SDS011;48842;51.046;13.796;2022-10-10T02:30:26;4.60;;;2.40;;
62798;SDS011;48842;51.046;13.796;2022-10-10T02:32:55;3.37;;;2.00;;
62798;SDS011;48842;51.046;13.796;2022-10-10T02:35:29;3.57;;;2.00;;
62798;SDS011;48842;51.046;13.796;2022-10-10T02:37:58;3.63;;;2.00;;
62798;SDS011;48842;51.046;13.796;2022-10-10T02:40:27;4.13;;;2.67;;
62798;SDS011;48842;51.046;13.796;2022-10-10T02:42:55;3.23;;;2.27;;
62798;SDS011;48842;51.046;13.796;2022-10-10T02:45:24;4.73;;;2.87;;
62798;SDS011;48842;51.046;13.796;2022-10-10T02:47:52;5.67;;;2.60;;
62798;SDS011;48842;51.046;13.796;2022-10-10T02:50:17;3.70;;;1.97;;
62798;SDS011;48842;51.046;13.796;2022-10-10T02:52:43;4.40;;;2.40;;
62798;SDS011;48842;51.046;13.796;2022-10-10T02:55:08;3.33;;;2.03;;
62798;SDS011;48842;51.046;13.796;2022-10-10T02:57:34;2.60;;;2.40;;
62798;SDS011;48842;51.046;13.796;2022-10-10T02:59:59;3.13;;;2.07;;
62798;SDS011;48842;51.046;13.796;2022-10-10T03:02:25;4.30;;;2.40;;
62798;SDS011;48842;51.046;13.796;2022-10-10T03:04:51;6.07;;;2.33;;
62798;SDS011;48842;51.046;13.796;2022-10-10T03:07:16;9.30;;;1.93;;
62798;SDS011;48842;51.046;13.796;2022-10-10T03:09:41;6.47;;;2.20;;
62798;SDS011;48842;51.046;13.796;2022-10-10T03:12:06;8.13;;;2.63;;
62798;SDS011;48842;51.046;13.796;2022-10-10T03:14:32;5.33;;;1.93;;
62798;SDS011;48842;51.046;13.796;2022-10-10T03:16:57;3.03;;;1.70;;
62798;SDS011;48842;51.046;13.796;2022-10-10T03:19:22;6.17;;;2.50;;
62798;SDS011;48842;51.046;13.796;2022-10-10T03:21:48;5.27;;;2.83;;
62798;SDS011;48842;51.046;13.796;2022-10-10T03:24:13;7.60;;;2.80;;
62798;SDS011;48842;51.046;13.796;2022-10-10T03:26:39;6.33;;;2.30;;
62798;SDS011;48842;51.046;13.796;2022-10-10T03:29:04;7.47;;;2.50;;
62798;SDS011;48842;51.046;13.796;2022-10-10T03:31:29;3.77;;;2.13;;
62798;SDS011;48842;51.046;13.796;2022-10-10T03:33:55;5.30;;;2.53;;
62798;SDS011;48842;51.046;13.796;2022-10-10T03:36:20;4.60;;;2.30;;
62798;SDS011;48842;51.046;13.796;2022-10-10T03:38:46;4.37;;;2.37;;
62798;SDS011;48842;51.046;13.796;2022-10-10T03:41:11;6.90;;;2.60;;
62798;SDS011;48842;51.046;13.796;2022-10-10T03:43:36;5.57;;;2.20;;
62798;SDS011;48842;51.046;13.796;2022-10-10T03:46:02;2.50;;;2.27;;
62798;SDS011;48842;51.046;13.796;2022-10-10T03:48:27;7.93;;;2.60;;
62798;SDS011;48842;51.046;13.796;2022-10-10T03:50:52;3.77;;;2.30;;
62798;SDS011;48842;51.046;13.796;2022-10-10T03:53:17;3.63;;;2.80;;
62798;SDS011;48842;51.046;13.796;2022-10-10T03:55:43;3.80;;;1.90;;
62798;SDS011;48842;51.046;13.796;2022-10-10T03:58:08;2.83;;;2.53;;
62798;SDS011;48842;51.046;13.796;2022-10-10T04:00:34;5.30;;;2.83;;
62798;SDS011;48842;51.046;13.796;2022-10-10T04:03:00;4.57;;;2.87;;
62798;SDS011;48842;51.046;13.796;2022-10-10T04:05:30;4.10;;;2.30;;
62798;SDS011;48842;51.046;13.796;2022-10-10T04:07:57;3.33;;;2.40;;
62798;SDS011;48842;51.046;13.796;2022-10-10T04:10:22;7.40;;;2.40;;
62798;SDS011;48842;51.046;13.796;2022-10-10T04:12:47;3.40;;;2.53;;
62798;SDS011;48842;51.046;13.796;2022-10-10T04:15:13;3.97;;;2.23;;
62798;SDS011;48842;51.046;13.796;2022-10-10T04:17:38;4.80;;;2.30;;
62798;SDS011;48842;51.046;13.796;2022-10-10T04:20:03;3.20;;;2.80;;
62798;SDS011;48842;51.046;13.796;2022-10-10T04:22:29;6.30;;;2.40;;
62798;SDS011;48842;51.046;13.796;2022-10-10T04:24:54;3.07;;;2.40;;
62798;SDS011;48842;51.046;13.796;2022-10-10T04:27:19;3.20;;;2.20;;
62798;SDS011;48842;51.046;13.796;2022-10-10T04:29:45;3.10;;;2.00;;
62798;SDS011;48842;51.046;13.796;2022-10-10T04:32:10;5.53;;;2.30;;
62798;SDS011;48842;51.046;13.796;2022-10-10T04:34:35;4.37;;;2.30;;
62798;SDS011;48842;51.046;13.796;2022-10-10T04:37:00;2.40;;;2.10;;
62798;SDS011;48842;51.046;13.796;2022-10-10T04:39:26;4.60;;;2.40;;
62798;SDS011;48842;51.046;13.796;2022-10-10T04:41:51;3.67;;;2.00;;
62798;SDS011;48842;51.046;13.796;2022-10-10T04:44:17;2.97;;;2.27;;
62798;SDS011;48842;51.046;13.796;2022-10-10T04:46:42;5.27;;;2.37;;
62798;SDS011;48842;51.046;13.796;2022-10-10T04:49:08;7.57;;;2.67;;
62798;SDS011;48842;51.046;13.796;2022-10-10T04:51:33;5.27;;;2.17;;
62798;SDS011;48842;51.046;13.796;2022-10-10T04:53:58;2.97;;;2.27;;
62798;SDS011;48842;51.046;13.796;2022-10-10T04:56:24;7.93;;;2.80;;
62798;SDS011;48842;51.046;13.796;2022-10-10T04:58:50;2.83;;;1.83;;
62798;SDS011;48842;51.046;13.796;2022-10-10T05:01:16;2.93;;;2.63;;
62798;SDS011;48842;51.046;13.796;2022-10-10T05:03:41;5.83;;;2.57;;
62798;SDS011;48842;51.046;13.796;2022-10-10T05:06:06;3.30;;;2.20;;
62798;SDS011;48842;51.046;13.796;2022-10-10T05:08:35;5.63;;;2.87;;
62798;SDS011;48842;51.046;13.796;2022-10-10T05:11:00;4.80;;;3.20;;
62798;SDS011;48842;51.046;13.796;2022-10-10T05:13:25;3.93;;;2.67;;
62798;SDS011;48842;51.046;13.796;2022-10-10T05:15:50;7.60;;;3.10;;
62798;SDS011;48842;51.046;13.796;2022-10-10T05:18:16;7.17;;;2.53;;
62798;SDS011;48842;51.046;13.796;2022-10-10T05:20:42;5.70;;;2.77;;
62798;SDS011;48842;51.046;13.796;2022-10-10T05:23:07;7.40;;;2.77;;
62798;SDS011;48842;51.046;13.796;2022-10-10T05:25:33;6.33;;;2.67;;
62798;SDS011;48842;51.046;13.796;2022-10-10T05:27:58;4.27;;;2.30;;
62798;SDS011;48842;51.046;13.796;2022-10-10T05:30:23;7.33;;;2.97;;
62798;SDS011;48842;51.046;13.796;2022-10-10T05:32:49;4.80;;;2.50;;
62798;SDS011;48842;51.046;13.796;2022-10-10T05:35:14;8.13;;;2.80;;
62798;SDS011;48842;51.046;13.796;2022-10-10T05:37:40;3.83;;;2.57;;
62798;SDS011;48842;51.046;13.796;2022-10-10T05:40:05;5.97;;;2.70;;
62798;SDS011;48842;51.046;13.796;2022-10-10T05:42:31;3.50;;;2.50;;
62798;SDS011;48842;51.046;13.796;2022-10-10T05:44:56;4.80;;;2.77;;
62798;SDS011;48842;51.046;13.796;2022-10-10T05:47:21;5.93;;;2.73;;
62798;SDS011;48842;51.046;13.796;2022-10-10T05:49:48;3.47;;;2.70;;
62798;SDS011;48842;51.046;13.796;2022-10-10T05:52:13;7.13;;;2.67;;
62798;SDS011;48842;51.046;13.796;2022-10-10T05:54:38;4.10;;;2.50;;
62798;SDS011;48842;51.046;13.796;2022-10-10T05:57:03;4.07;;;2.37;;
62798;SDS011;48842;51.046;13.796;2022-10-10T05:59:29;5.17;;;2.77;;
62798;SDS011;48842;51.046;13.796;2022-10-10T06:01:54;8.13;;;2.70;;
62798;SDS011;48842;51.046;13.796;2022-10-10T06:04:20;3.60;;;2.30;;
62798;SDS011;48842;51.046;13.796;2022-10-10T06:06:45;7.70;;;3.27;;
62798;SDS011;48842;51.046;13.796;2022-10-10T06:09:11;3.27;;;2.40;;
62798;SDS011;48842;51.046;13.796;2022-10-10T06:11:36;4.03;;;2.70;;
62798;SDS011;48842;51.046;13.796;2022-10-10T06:14:01;3.40;;;2.30;;
62798;SDS011;48842;51.046;13.796;2022-10-10T06:16:27;11.80;;;2.43;;
62798;SDS011;48842;51.046;13.796;2022-10-10T06:18:52;3.10;;;2.10;;
62798;SDS011;48842;51.046;13.796;2022-10-10T06:21:20;3.30;;;2.87;;
62798;SDS011;48842;51.046;13.796;2022-10-10T06:23:46;5.70;;;2.67;;
62798;SDS011;48842;51.046;13.796;2022-10-10T06:26:12;4.73;;;2.40;;
62798;SDS011;48842;51.046;13.796;2022-10-10T06:28:39;4.47;;;2.97;;
62798;SDS011;48842;51.046;13.796;2022-10-10T06:31:05;4.33;;;2.77;;
62798;SDS011;48842;51.046;13.796;2022-10-10T06:33:32;2.70;;;2.33;;
62798;SDS011;48842;51.046;13.796;2022-10-10T06:35:58;2.43;;;2.30;;
62798;SDS011;48842;51.046;13.796;2022-10-10T06:38:23;2.90;;;2.50;;
62798;SDS011;48842;51.046;13.796;2022-10-10T06:40:49;2.33;;;1.90;;
62798;SDS011;48842;51.046;13.796;2022-10-10T06:43:15;2.83;;;2.20;;
62798;SDS011;48842;51.046;13.796;2022-10-10T06:45:42;11.43;;;2.77;;
62798;SDS011;48842;51.046;13.796;2022-10-10T06:48:09;3.43;;;2.77;;
62798;SDS011;48842;51.046;13.796;2022-10-10T06:50:35;5.50;;;3.07;;
62798;SDS011;48842;51.046;13.796;2022-10-10T06:53:01;6.83;;;1.93;;
62798;SDS011;48842;51.046;13.796;2022-10-10T06:55:27;9.10;;;2.30;;
62798;SDS011;48842;51.046;13.796;2022-10-10T06:57:52;3.70;;;2.13;;
62798;SDS011;48842;51.046;13.796;2022-10-10T07:00:18;3.13;;;2.93;;
62798;SDS011;48842;51.046;13.796;2022-10-10T07:02:44;7.83;;;3.30;;
62798;SDS011;48842;51.046;13.796;2022-10-10T07:05:09;3.43;;;2.73;;
62798;SDS011;48842;51.046;13.796;2022-10-10T07:07:37;3.80;;;2.57;;
62798;SDS011;48842;51.046;13.796;2022-10-10T07:10:05;9.20;;;2.40;;
62798;SDS011;48842;51.046;13.796;2022-10-10T07:12:32;6.03;;;2.43;;
62798;SDS011;48842;51.046;13.796;2022-10-10T07:14:58;6.83;;;2.60;;
62798;SDS011;48842;51.046;13.796;2022-10-10T07:17:23;3.87;;;2.80;;
62798;SDS011;48842;51.046;13.796;2022-10-10T07:19:48;3.07;;;2.13;;
62798;SDS011;48842;51.046;13.796;2022-10-10T07:22:14;3.80;;;2.53;;
62798;SDS011;48842;51.046;13.796;2022-10-10T07:24:39;6.67;;;2.60;;
62798;SDS011;48842;51.046;13.796;2022-10-10T07:27:04;4.70;;;2.80;;
62798;SDS011;48842;51.046;13.796;2022-10-10T07:29:30;5.03;;;2.73;;
62798;SDS011;48842;51.046;13.796;2022-10-10T07:31:55;3.63;;;2.17;;
62798;SDS011;48842;51.046;13.796;2022-10-10T07:34:21;6.50;;;2.90;;
62798;SDS011;48842;51.046;13.796;2022-10-10T07:36:46;8.40;;;2.93;;
62798;SDS011;48842;51.046;13.796;2022-10-10T07:39:17;4.07;;;3.23;;
62798;SDS011;48842;51.046;13.796;2022-10-10T07:41:46;5.30;;;2.70;;
62798;SDS011;48842;51.046;13.796;2022-10-10T07:44:11;6.53;;;2.80;;
62798;SDS011;48842;51.046;13.796;2022-10-10T07:46:37;3.00;;;2.40;;
62798;SDS011;48842;51.046;13.796;2022-10-10T07:49:02;8.83;;;3.30;;
62798;SDS011;48842;51.046;13.796;2022-10-10T07:51:27;2.53;;;2.33;;
62798;SDS011;48842;51.046;13.796;2022-10-10T07:53:53;7.63;;;2.87;;
62798;SDS011;48842;51.046;13.796;2022-10-10T07:56:18;16.00;;;2.77;;
62798;SDS011;48842;51.046;13.796;2022-10-10T07:58:43;3.80;;;2.80;;
62798;SDS011;48842;51.046;13.796;2022-10-10T08:01:10;6.90;;;2.50;;
62798;SDS011;48842;51.046;13.796;2022-10-10T08:03:37;5.90;;;2.50;;
62798;SDS011;48842;51.046;13.796;2022-10-10T08:06:03;5.50;;;2.57;;
62798;SDS011;48842;51.046;13.796;2022-10-10T08:08:30;4.07;;;2.57;;
62798;SDS011;48842;51.046;13.796;2022-10-10T08:10:56;3.77;;;2.50;;
62798;SDS011;48842;51.046;13.796;2022-10-10T08:13:22;15.47;;;2.10;;
62798;SDS011;48842;51.046;13.796;2022-10-10T08:15:49;6.07;;;2.57;;
62798;SDS011;48842;51.046;13.796;2022-10-10T08:18:15;6.47;;;2.87;;
62798;SDS011;48842;51.046;13.796;2022-10-10T08:20:40;9.00;;;3.17;;
62798;SDS011;48842;51.046;13.796;2022-10-10T08:23:06;7.57;;;2.73;;
62798;SDS011;48842;51.046;13.796;2022-10-10T08:25:31;3.87;;;2.47;;
62798;SDS011;48842;51.046;13.796;2022-10-10T08:27:56;5.17;;;2.73;;
62798;SDS011;48842;51.046;13.796;2022-10-10T08:30:22;5.80;;;2.87;;
62798;SDS011;48842;51.046;13.796;2022-10-10T08:32:47;10.50;;;2.93;;
62798;SDS011;48842;51.046;13.796;2022-10-10T08:35:12;5.27;;;3.03;;
62798;SDS011;48842;51.046;13.796;2022-10-10T08:37:38;5.33;;;2.97;;
62798;SDS011;48842;51.046;13.796;2022-10-10T08:40:03;8.40;;;3.17;;
62798;SDS011;48842;51.046;13.796;2022-10-10T08:42:31;6.77;;;2.97;;
62798;SDS011;48842;51.046;13.796;2022-10-10T08:45:02;6.13;;;3.07;;
62798;SDS011;48842;51.046;13.796;2022-10-10T08:50:49;5.07;;;2.83;;
62798;SDS011;48842;51.046;13.796;2022-10-10T08:53:14;9.97;;;2.83;;
62798;SDS011;48842;51.046;13.796;2022-10-10T08:55:46;9.17;;;3.43;;
62798;SDS011;48842;51.046;13.796;2022-10-10T08:58:23;4.83;;;2.60;;
62798;SDS011;48842;51.046;13.796;2022-10-10T09:01:01;5.63;;;2.90;;
62798;SDS011;48842;51.046;13.796;2022-10-10T09:03:44;10.40;;;3.53;;
62798;SDS011;48842;51.046;13.796;2022-10-10T09:08:47;4.57;;;2.60;;
62798;SDS011;48842;51.046;13.796;2022-10-10T09:25:55;10.43;;;3.47;;
62798;SDS011;48842;51.046;13.796;2022-10-10T09:28:34;4.37;;;2.90;;
62798;SDS011;48842;51.046;13.796;2022-10-10T09:31:04;5.50;;;2.73;;
62798;SDS011;48842;51.046;13.796;2022-10-10T09:33:50;5.23;;;2.60;;
62798;SDS011;48842;51.046;13.796;2022-10-10T09:36:18;4.03;;;3.00;;
62798;SDS011;48842;51.046;13.796;2022-10-10T09:38:55;10.73;;;2.67;;
62798;SDS011;48842;51.046;13.796;2022-10-10T09:41:33;4.73;;;3.03;;
62798;SDS011;48842;51.046;13.796;2022-10-10T09:44:04;8.87;;;3.93;;
62798;SDS011;48842;51.046;13.796;2022-10-10T09:46:33;5.20;;;2.37;;
62798;SDS011;48842;51.046;13.796;2022-10-10T09:49:00;3.27;;;2.47;;
62798;SDS011;48842;51.046;13.796;2022-10-10T09:51:27;6.00;;;3.07;;
62798;SDS011;48842;51.046;13.796;2022-10-10T09:53:53;5.40;;;3.03;;
62798;SDS011;48842;51.046;13.796;2022-10-10T09:56:20;8.17;;;2.60;;
62798;SDS011;48842;51.046;13.796;2022-10-10T09:58:48;4.47;;;2.63;;
62798;SDS011;48842;51.046;13.796;2022-10-10T10:01:17;7.70;;;2.87;;
62798;SDS011;48842;51.046;13.796;2022-10-10T10:06:35;5.07;;;2.83;;
62798;SDS011;48842;51.046;13.796;2022-10-10T10:09:03;6.53;;;3.10;;
62798;SDS011;48842;51.046;13.796;2022-10-10T10:11:31;9.43;;;3.20;;
62798;SDS011;48842;51.046;13.796;2022-10-10T10:13:59;4.83;;;3.30;;
62798;SDS011;48842;51.046;13.796;2022-10-10T10:16:36;7.20;;;3.00;;
62798;SDS011;48842;51.046;13.796;2022-10-10T10:19:03;6.77;;;3.37;;
62798;SDS011;48842;51.046;13.796;2022-10-10T10:21:31;7.80;;;3.77;;
62798;SDS011;48842;51.046;13.796;2022-10-10T10:24:18;4.27;;;3.00;;
62798;SDS011;48842;51.046;13.796;2022-10-10T10:26:46;5.70;;;3.30;;
62798;SDS011;48842;51.046;13.796;2022-10-10T10:29:26;3.97;;;3.03;;
62798;SDS011;48842;51.046;13.796;2022-10-10T10:32:13;4.67;;;3.23;;
62798;SDS011;48842;51.046;13.796;2022-10-10T10:35:34;7.20;;;2.60;;
62798;SDS011;48842;51.046;13.796;2022-10-10T10:38:00;8.03;;;2.87;;
62798;SDS011;48842;51.046;13.796;2022-10-10T10:40:36;4.60;;;3.00;;
62798;SDS011;48842;51.046;13.796;2022-10-10T10:43:23;9.57;;;2.93;;
62798;SDS011;48842;51.046;13.796;2022-10-10T10:46:07;8.10;;;4.10;;
62798;SDS011;48842;51.046;13.796;2022-10-10T10:56:51;14.17;;;5.20;;
62798;SDS011;48842;51.046;13.796;2022-10-10T11:07:18;11.20;;;3.30;;
62798;SDS011;48842;51.046;13.796;2022-10-10T11:12:53;4.97;;;3.03;;
62798;SDS011;48842;51.046;13.796;2022-10-10T11:15:40;6.40;;;3.03;;
62798;SDS011;48842;51.046;13.796;2022-10-10T11:18:12;7.70;;;4.07;;
62798;SDS011;48842;51.046;13.796;2022-10-10T11:20:44;6.40;;;3.60;;
62798;SDS011;48842;51.046;13.796;2022-10-10T11:23:30;9.07;;;3.00;;
62798;SDS011;48842;51.046;13.796;2022-10-10T11:26:02;4.13;;;3.00;;
62798;SDS011;48842;51.046;13.796;2022-10-10T11:28:36;8.20;;;3.37;;
62798;SDS011;48842;51.046;13.796;2022-10-10T11:31:06;4.53;;;2.80;;
62798;SDS011;48842;51.046;13.796;2022-10-10T11:33:41;4.87;;;3.20;;
62798;SDS011;48842;51.046;13.796;2022-10-10T11:36:17;11.33;;;3.10;;
62798;SDS011;48842;51.046;13.796;2022-10-10T11:38:54;9.37;;;2.73;;
62798;SDS011;48842;51.046;13.796;2022-10-10T11:41:39;6.73;;;3.57;;
62798;SDS011;48842;51.046;13.796;2022-10-10T11:44:15;3.73;;;2.73;;
62798;SDS011;48842;51.046;13.796;2022-10-10T11:46:55;5.70;;;3.50;;
62798;SDS011;48842;51.046;13.796;2022-10-10T11:52:21;4.27;;;3.17;;
62798;SDS011;48842;51.046;13.796;2022-10-10T11:54:59;6.60;;;3.50;;
62798;SDS011;48842;51.046;13.796;2022-10-10T11:57:40;11.00;;;3.10;;
62798;SDS011;48842;51.046;13.796;2022-10-10T12:00:14;7.00;;;3.50;;
62798;SDS011;48842;51.046;13.796;2022-10-10T12:02:41;5.47;;;4.13;;
62798;SDS011;48842;51.046;13.796;2022-10-10T12:05:24;6.77;;;3.03;;
62798;SDS011;48842;51.046;13.796;2022-10-10T12:10:21;7.63;;;3.60;;
62798;SDS011;48842;51.046;13.796;2022-10-10T12:12:51;3.20;;;2.90;;
62798;SDS011;48842;51.046;13.796;2022-10-10T12:17:53;5.83;;;3.13;;
62798;SDS011;48842;51.046;13.796;2022-10-10T12:23:08;4.53;;;3.37;;
62798;SDS011;48842;51.046;13.796;2022-10-10T12:25:39;6.87;;;3.20;;
62798;SDS011;48842;51.046;13.796;2022-10-10T12:33:19;9.00;;;3.77;;
62798;SDS011;48842;51.046;13.796;2022-10-10T12:35:57;15.87;;;3.73;;
62798;SDS011;48842;51.046;13.796;2022-10-10T12:42:22;8.50;;;4.00;;
62798;SDS011;48842;51.046;13.796;2022-10-10T12:44:21;14.03;;;3.67;;
62798;SDS011;48842;51.046;13.796;2022-10-10T12:49:49;7.50;;;3.57;;
62798;SDS011;48842;51.046;13.796;2022-10-10T12:53:02;12.07;;;3.63;;
62798;SDS011;48842;51.046;13.796;2022-10-10T12:55:26;5.63;;;3.30;;
62798;SDS011;48842;51.046;13.796;2022-10-10T12:57:56;7.37;;;4.00;;
62798;SDS011;48842;51.046;13.796;2022-10-10T13:00:26;6.70;;;3.43;;
62798;SDS011;48842;51.046;13.796;2022-10-10T13:03:00;7.87;;;3.60;;
62798;SDS011;48842;51.046;13.796;2022-10-10T13:05:28;9.90;;;3.97;;
62798;SDS011;48842;51.046;13.796;2022-10-10T13:08:05;3.73;;;3.43;;
62798;SDS011;48842;51.046;13.796;2022-10-10T13:10:35;6.47;;;3.40;;
62798;SDS011;48842;51.046;13.796;2022-10-10T13:13:02;9.73;;;4.03;;
62798;SDS011;48842;51.046;13.796;2022-10-10T13:15:29;7.60;;;3.70;;
62798;SDS011;48842;51.046;13.796;2022-10-10T13:17:56;6.13;;;3.63;;
62798;SDS011;48842;51.046;13.796;2022-10-10T13:20:34;8.80;;;3.57;;
62798;SDS011;48842;51.046;13.796;2022-10-10T13:23:12;7.90;;;4.10;;
62798;SDS011;48842;51.046;13.796;2022-10-10T13:25:39;4.70;;;3.50;;
62798;SDS011;48842;51.046;13.796;2022-10-10T13:28:16;7.50;;;3.80;;
62798;SDS011;48842;51.046;13.796;2022-10-10T13:30:43;6.50;;;3.73;;
62798;SDS011;48842;51.046;13.796;2022-10-10T13:33:13;6.23;;;3.73;;
62798;SDS011;48842;51.046;13.796;2022-10-10T13:35:41;4.40;;;3.50;;
62798;SDS011;48842;51.046;13.796;2022-10-10T13:38:08;4.37;;;3.43;;
62798;SDS011;48842;51.046;13.796;2022-10-10T13:40:38;8.07;;;3.90;;
62798;SDS011;48842;51.046;13.796;2022-10-10T13:43:09;7.43;;;3.53;;
62798;SDS011;48842;51.046;13.796;2022-10-10T13:45:43;8.83;;;3.20;;
62798;SDS011;48842;51.046;13.796;2022-10-10T13:48:11;10.73;;;3.40;;
62798;SDS011;48842;51.046;13.796;2022-10-10T13:56:10;5.70;;;3.30;;
62798;SDS011;48842;51.046;13.796;2022-10-10T13:58:43;9.93;;;4.00;;
62798;SDS011;48842;51.046;13.796;2022-10-10T14:04:05;5.43;;;3.63;;
62798;SDS011;48842;51.046;13.796;2022-10-10T14:06:36;12.47;;;4.50;;
62798;SDS011;48842;51.046;13.796;2022-10-10T14:09:05;7.30;;;3.83;;
62798;SDS011;48842;51.046;13.796;2022-10-10T14:11:37;14.13;;;4.20;;
62798;SDS011;48842;51.046;13.796;2022-10-10T14:14:07;13.10;;;4.00;;
62798;SDS011;48842;51.046;13.796;2022-10-10T14:16:39;10.93;;;3.37;;
62798;SDS011;48842;51.046;13.796;2022-10-10T14:19:07;6.67;;;3.70;;
62798;SDS011;48842;51.046;13.796;2022-10-10T14:21:42;7.20;;;3.83;;
62798;SDS011;48842;51.046;13.796;2022-10-10T14:24:07;10.87;;;4.10;;
62798;SDS011;48842;51.046;13.796;2022-10-10T14:26:33;12.27;;;5.27;;
62798;SDS011;48842;51.046;13.796;2022-10-10T14:28:59;11.00;;;3.70;;
62798;SDS011;48842;51.046;13.796;2022-10-10T14:31:24;5.90;;;3.67;;
62798;SDS011;48842;51.046;13.796;2022-10-10T14:33:52;6.77;;;4.00;;
62798;SDS011;48842;51.046;13.796;2022-10-10T14:36:18;8.03;;;3.70;;
62798;SDS011;48842;51.046;13.796;2022-10-10T14:38:43;6.93;;;3.60;;
62798;SDS011;48842;51.046;13.796;2022-10-10T14:41:09;7.50;;;3.80;;
62798;SDS011;48842;51.046;13.796;2022-10-10T14:43:36;5.60;;;4.23;;
62798;SDS011;48842;51.046;13.796;2022-10-10T14:46:01;5.80;;;4.10;;
62798;SDS011;48842;51.046;13.796;2022-10-10T14:48:27;9.17;;;4.07;;
62798;SDS011;48842;51.046;13.796;2022-10-10T14:50:52;16.23;;;5.13;;
62798;SDS011;48842;51.046;13.796;2022-10-10T14:53:17;7.50;;;4.13;;
62798;SDS011;48842;51.046;13.796;2022-10-10T14:55:42;7.50;;;4.37;;
62798;SDS011;48842;51.046;13.796;2022-10-10T14:58:16;8.77;;;4.43;;
62798;SDS011;48842;51.046;13.796;2022-10-10T15:00:43;6.90;;;3.97;;
62798;SDS011;48842;51.046;13.796;2022-10-10T15:03:09;11.90;;;4.63;;
62798;SDS011;48842;51.046;13.796;2022-10-10T15:05:34;7.67;;;4.57;;
62798;SDS011;48842;51.046;13.796;2022-10-10T15:08:00;11.30;;;4.63;;
62798;SDS011;48842;51.046;13.796;2022-10-10T15:10:25;10.80;;;4.60;;
62798;SDS011;48842;51.046;13.796;2022-10-10T15:12:50;16.90;;;4.70;;
62798;SDS011;48842;51.046;13.796;2022-10-10T15:15:16;10.50;;;5.50;;
62798;SDS011;48842;51.046;13.796;2022-10-10T15:17:41;9.50;;;4.97;;
62798;SDS011;48842;51.046;13.796;2022-10-10T15:20:07;7.33;;;4.60;;
62798;SDS011;48842;51.046;13.796;2022-10-10T15:22:34;8.30;;;5.13;;
62798;SDS011;48842;51.046;13.796;2022-10-10T15:25:00;6.40;;;5.30;;
62798;SDS011;48842;51.046;13.796;2022-10-10T15:27:26;7.30;;;5.10;;
62798;SDS011;48842;51.046;13.796;2022-10-10T15:29:54;16.10;;;5.53;;
62798;SDS011;48842;51.046;13.796;2022-10-10T15:32:20;9.07;;;4.93;;
62798;SDS011;48842;51.046;13.796;2022-10-10T15:34:48;6.27;;;5.00;;
62798;SDS011;48842;51.046;13.796;2022-10-10T15:37:14;9.83;;;4.63;;
62798;SDS011;48842;51.046;13.796;2022-10-10T15:39:39;6.67;;;5.53;;
62798;SDS011;48842;51.046;13.796;2022-10-10T15:42:08;7.53;;;5.00;;
62798;SDS011;48842;51.046;13.796;2022-10-10T15:44:33;9.90;;;5.00;;
62798;SDS011;48842;51.046;13.796;2022-10-10T15:46:58;14.50;;;5.40;;
62798;SDS011;48842;51.046;13.796;2022-10-10T15:49:24;9.80;;;4.60;;
62798;SDS011;48842;51.046;13.796;2022-10-10T15:51:49;10.47;;;5.63;;
62798;SDS011;48842;51.046;13.796;2022-10-10T15:54:14;7.57;;;4.50;;
62798;SDS011;48842;51.046;13.796;2022-10-10T15:56:40;10.23;;;5.50;;
62798;SDS011;48842;51.046;13.796;2022-10-10T15:59:06;10.03;;;5.47;;
62798;SDS011;48842;51.046;13.796;2022-10-10T16:01:33;9.47;;;5.30;;
62798;SDS011;48842;51.046;13.796;2022-10-10T16:04:00;10.53;;;6.97;;
62798;SDS011;48842;51.046;13.796;2022-10-10T16:06:26;10.30;;;6.33;;
62798;SDS011;48842;51.046;13.796;2022-10-10T16:08:51;12.40;;;6.07;;
62798;SDS011;48842;51.046;13.796;2022-10-10T16:11:18;10.03;;;5.87;;
62798;SDS011;48842;51.046;13.796;2022-10-10T16:13:46;7.30;;;5.67;;
62798;SDS011;48842;51.046;13.796;2022-10-10T16:16:16;16.33;;;6.47;;
62798;SDS011;48842;51.046;13.796;2022-10-10T16:18:43;11.60;;;6.30;;
62798;SDS011;48842;51.046;13.796;2022-10-10T16:21:10;24.50;;;7.77;;
62798;SDS011;48842;51.046;13.796;2022-10-10T16:23:37;11.43;;;5.10;;
62798;SDS011;48842;51.046;13.796;2022-10-10T16:26:03;9.93;;;5.97;;